WHTO2: S Canadian Riv, Whitefield, OK

                                SHEF ID:       WHTO2     Canadian River near Whitefield,
STATION TYPE: Stream Gauge
Regulating: Stage = 17.50, Flow = 87858

PRECIP STAGE STAGE(2) RIV-FLOW BAT-LOAD
in ft ft cfs volt
Ccp-Rev Ccp-Rev Ccp-Rev Ccp-Rev Ccp-Rev
(America/Chicago)
04/25 00:00 0.00 5.52 5.42 7382 12.31
04/25 01:00 0.00 5.50 5.42 7323 12.30
04/25 02:00 0.00 5.48 5.40 7265 12.29
04/25 03:00 0.00 5.47 5.39 7237 12.27
04/25 04:00 0.00 5.46 5.37 7208 12.26
04/25 05:00 0.00 5.44 5.36 7150 12.24
04/25 06:00 0.00 5.43 5.36 7122 12.23
04/25 07:00 0.00 5.42 5.30 7093 12.21
04/25 08:00 0.01 5.41 5.32 7065 12.30
04/25 09:00 0.00 5.40 5.33 7035 12.62
04/25 10:00 0.00 5.41 5.30 7065 12.99
04/25 11:00 0.00 5.40 5.27 7035 13.40
04/25 12:00 0.00 5.41 5.28 7065 13.45
04/25 13:00 0.00 5.41 5.27 7065 13.41
04/25 14:00 0.00 5.40 5.25 7035 13.39
04/25 15:00 0.00 5.41 5.27 7065 13.45
04/25 16:00 0.00 5.40 5.29 7035 13.39
04/25 17:00 0.00 5.39 5.30 7005 13.05
04/25 18:00 0.00 5.39 5.27 7005 12.68
04/25 19:00 0.00 5.40 5.28 7035 12.42
04/25 20:00 0.00 5.40 5.25 7035 12.37
04/25 21:00 0.00 5.39 5.24 7005 12.36
04/25 22:00 0.00 5.39 5.29 7005 12.35
04/25 23:00 0.00 5.39 5.24 7005 12.34
Data processed at Sun 26Apr2026 04:47 GMT

NOTICE: If you are parsing this page

Please convert to using our Data API. Starting early 2026 we will be migrating to: https://water.usace.army.mil with modern pages rendered in JavaScript. When this migration completes you will no longer be able to scrape this page! CWMSDataAPI (CDA)

Timeseries IDs (TSIDs)

TSIDs used from left to right in the data table
WHIT.Precip-Inc.Total.1Hour.1Hour.Ccp-Rev
WHIT.Stage.Inst.1Hour.0.Ccp-Rev
WHIT.Stage-Alt.Inst.1Hour.0.Ccp-Rev
WHIT.Flow.Inst.1Hour.0.Ccp-Rev
WHIT.Volt-Battery Load.Inst.1Hour.0.Ccp-Rev

                            

All information presented herein is the property of the government of the United States of America and may be revised or deleted at any time without prior notice. Dissemination of this information without the expressed written consent of the Public Affairs Office, Tulsa District U.S. Army Corps of Engineers is strictly prohibited. These data are gathered electronically and, as presented, have NOT undergone any form of quality control. These data are NOT guaranteed to be valid or correct.